Detalii statie SOPEMA [00001CFB]

Toti senzorii

Date Temperatura solului [C]Precipitatii [mm]Voltaj baterie [mV]Leaf Wetness [Min]HC Air temperature [C]HC Relative humidity [%]Punctul de roua [C]
medieminmaxsumaultimatimpmedieminmaxmediemediemin
2020-01-25 15:00:00 0 7000 10.39 9.31 10.83 37.77 -3.5 -4.2
2020-01-25 16:00:00 0 6992 8.8 8.09 10.09 39.1 -4.4 -5.1
2020-01-25 17:00:00 0 6942 6.31 3.74 8.85 47.88 -4 -4.5
2020-01-25 18:00:00 0 6942 3.13 2.48 4.38 59.17 -4.1 -4.6
2020-01-25 19:00:00 0 6894 0.41 -0.65 2.01 46.67 -2.7 0
2020-01-25 20:00:00 0 6894 -0.55 -1.46 0.19 0 0 0
2020-01-25 21:00:00 0 6864 -0.53 -1.1 0.49 6.46 0
2020-01-25 22:00:00 0 6864 -1.17 -1.81 -0.13 30.76 -0.8 0
2020-01-25 23:00:00 0 6864 -1.58 -2.25 -1.2 23.88 0
2020-01-26 00:00:00 0 6844 -2.38 -2.89 -1.43 41.66 0
2020-01-26 01:00:00 0 6854 -3.3 -3.8 -2.72 0 0 0
2020-01-26 02:00:00 0 6844 -4.16 -4.85 -3.73 4.99 0
2020-01-26 03:00:00 0 6844 -3.57 -4.36 -2.79 0 0 0
2020-01-26 04:00:00 0 6844 -4.09 -4.8 -3.59 0 0 0
2020-01-26 05:00:00 0 6834 -4.56 -4.91 -4.05 0 0 0
2020-01-26 06:00:00 0 6834 -5.42 -5.95 -4.75 0 0 0
2020-01-26 07:00:00 0 6826 -6.1 -6.48 -5.07 0 0 0
2020-01-26 08:00:00 0 6826 -5 -5.35 -4.39 0 0 0
2020-01-26 09:00:00 0 6884 -3.79 -4.57 -2.82 0 0 0
2020-01-26 10:00:00 0 7254 -1.1 -2.61 0.63 0 0 0
2020-01-26 11:00:00 0 7274 2.51 1.17 3.68 0 0 0
2020-01-26 12:00:00 0 7274 5.39 4.08 6.46 0 0 0
2020-01-26 13:00:00 0 7236 8.2 7 10.14 54.37 -0.5 -1.5
2020-01-26 14:00:00 0 7236 10.6 9.92 11.29 42.77 -1.5 -2.3
2020-01-26 15:00:00 0 7020 10.42 9.58 11.38 43.2 -1.6 -2.8
2020-01-26 16:00:00 0 6982 8.89 8.46 9.25 48.13 -1.5 -2
2020-01-26 17:00:00 0 6932 7.13 5.4 8.69 52.34 -2 -2.8
2020-01-26 18:00:00 0 6914 3.66 1.98 5.63 65.38 -2.2 -3.3
2020-01-26 19:00:00 0 6922 3.31 3.19 3.51 65.61 -2.5 -2.8
2020-01-26 20:00:00 0 6884 1.34 0.15 3.04 74 -2.8 -3.5
2020-01-26 21:00:00 0 6864 0.7 0.16 1.21 54.25 -1.5 0
2020-01-26 22:00:00 0 6864 0.79 0.41 1.04 15.2 -0.1 0
2020-01-26 23:00:00 0 6864 -0.13 -0.55 0.44 0 0 0
2020-01-27 00:00:00 0 6854 -0.08 -0.32 0.07 0 0 0
2020-01-27 01:00:00 0 6854 0.01 -0.2 0.3 0 0 0
2020-01-27 02:00:00 0 6844 -0.71 -1.09 -0.02 0 0 0
2020-01-27 03:00:00 0 6844 -0.74 -0.95 -0.53 0 0 0
2020-01-27 04:00:00 0 6844 -0.22 -0.62 -0.06 0 0 0
2020-01-27 05:00:00 0 6864 -0.12 -0.18 -0.09 0 0 0
2020-01-27 06:00:00 0 6844 -0.28 -0.45 -0.16 0 0 0
2020-01-27 07:00:00 0 6844 -0.35 -0.44 -0.27 0 0 0
2020-01-27 08:00:00 0 6834 -0.36 -0.42 -0.29 0 0 0
2020-01-27 09:00:00 0 6854 -0.13 -0.28 -0.03 0 0 0
2020-01-27 10:00:00 0.2 6942 0.41 -0.07 1.1 0 0 0
2020-01-27 11:00:00 0 6952 1.81 1.19 2.4 0 0 0
2020-01-27 12:00:00 0 6962 3.59 2.27 4.97 0 0 0
2020-01-27 13:00:00 0 6922 5.31 5.02 5.61 0 0 0
2020-01-27 14:00:00 0 6922 5.7 5.46 5.93 0 0 0